createdAt,value
2023-01-26T00:01:27.658Z,40.50
2023-01-26T00:03:57.861Z,40.25
2023-01-26T00:06:28.343Z,36.83
2023-01-26T00:08:59.158Z,38.67
2023-01-26T00:11:30.704Z,39.15
2023-01-26T00:14:03.827Z,39.35
2023-01-26T00:16:33.537Z,40.47
2023-01-26T00:19:04.101Z,42.25
2023-01-26T00:21:33.921Z,39.40
2023-01-26T00:24:04.638Z,34.13
2023-01-26T00:26:34.638Z,35.55
2023-01-26T00:29:07.052Z,37.17
2023-01-26T00:31:36.837Z,41.13
2023-01-26T00:34:06.673Z,38.60
2023-01-26T00:36:37.936Z,37.08
2023-01-26T00:39:07.785Z,33.53
2023-01-26T00:41:52.636Z,34.55
2023-01-26T00:46:54.688Z,41.05
2023-01-26T00:49:24.478Z,34.53
2023-01-26T00:51:54.175Z,28.13
2023-01-26T00:54:24.153Z,31.60
2023-01-26T00:56:53.935Z,28.00
2023-01-26T00:59:26.434Z,29.38
2023-01-26T01:01:56.621Z,31.27
2023-01-26T01:04:26.480Z,31.52
2023-01-26T01:06:56.439Z,30.40
2023-01-26T01:09:26.613Z,36.50
2023-01-26T01:11:56.381Z,30.98
2023-01-26T01:14:28.847Z,28.75
2023-01-26T01:16:58.686Z,33.20
2023-01-26T01:19:28.561Z,31.33
2023-01-26T01:21:58.349Z,27.65
2023-01-26T01:24:28.227Z,30.27
2023-01-26T01:26:57.957Z,31.90
2023-01-26T01:29:30.481Z,29.58
2023-01-26T01:32:00.396Z,30.77
2023-01-26T01:34:30.384Z,28.27
2023-01-26T01:37:00.513Z,30.60
2023-01-26T01:39:30.443Z,31.55
2023-01-26T01:42:00.215Z,27.58
2023-01-26T01:44:32.560Z,26.73
2023-01-26T01:47:05.530Z,29.67
2023-01-26T01:49:39.302Z,31.67
2023-01-26T01:52:13.545Z,28.20
2023-01-26T01:54:48.831Z,28.85
2023-01-26T01:57:27.770Z,31.27
2023-01-26T02:00:06.179Z,26.02
2023-01-26T02:02:36.444Z,30.48
2023-01-26T02:05:16.695Z,33.63
2023-01-26T02:07:46.848Z,28.13
2023-01-26T02:10:22.940Z,30.45
2023-01-26T02:13:00.656Z,29.85
2023-01-26T02:15:33.545Z,30.92
2023-01-26T02:18:05.753Z,27.92
2023-01-26T02:20:39.743Z,37.90
2023-01-26T02:23:18.176Z,32.88
2023-01-26T02:26:01.638Z,32.00
2023-01-26T02:28:32.905Z,29.58
2023-01-26T02:31:03.407Z,34.25
2023-01-26T02:33:36.080Z,29.85
2023-01-26T02:36:06.806Z,29.70
2023-01-26T02:38:42.987Z,32.55
2023-01-26T02:41:39.847Z,29.90
2023-01-26T02:44:10.463Z,31.42
2023-01-26T02:46:40.337Z,28.45
2023-01-26T02:49:22.650Z,31.80
2023-01-26T02:51:52.421Z,26.42
2023-01-26T02:54:34.701Z,30.60
2023-01-26T02:57:07.218Z,40.17
2023-01-26T02:59:36.989Z,34.92
2023-01-26T03:02:06.754Z,35.65
2023-01-26T03:04:36.623Z,39.00
2023-01-26T03:07:06.445Z,35.15
2023-01-26T03:09:36.226Z,36.70
2023-01-26T03:12:08.905Z,32.13
2023-01-26T03:14:38.633Z,33.35
2023-01-26T03:17:08.443Z,39.33
2023-01-26T03:19:50.667Z,38.92
2023-01-26T03:22:32.993Z,40.35
2023-01-26T03:25:15.280Z,42.95
2023-01-26T03:27:49.678Z,39.25
2023-01-26T03:30:21.635Z,44.72
2023-01-26T03:32:51.386Z,42.92
2023-01-26T03:35:22.809Z,39.33
2023-01-26T03:37:54.943Z,44.88
2023-01-26T03:40:37.431Z,48.55
2023-01-26T03:43:25.215Z,46.80
2023-01-26T03:46:07.577Z,45.47
2023-01-26T03:48:49.875Z,49.22
2023-01-26T03:51:32.094Z,50.47
2023-01-26T03:54:14.335Z,45.00
2023-01-26T03:56:44.693Z,41.33
2023-01-26T03:59:17.338Z,41.47
2023-01-26T04:02:01.977Z,41.08
2023-01-26T04:04:44.310Z,54.58
2023-01-26T04:07:26.785Z,43.40
2023-01-26T04:09:56.555Z,47.63
2023-01-26T04:12:26.318Z,45.85
2023-01-26T04:15:11.161Z,45.30
2023-01-26T04:20:35.617Z,45.72
2023-01-26T04:23:05.333Z,45.00
2023-01-26T04:25:35.062Z,43.00
2023-01-26T04:28:04.912Z,48.63
2023-01-26T04:30:37.360Z,41.58
2023-01-26T04:33:07.309Z,47.25
2023-01-26T04:35:37.197Z,41.58
2023-01-26T04:38:07.010Z,37.33
2023-01-26T04:40:36.766Z,40.75
2023-01-26T04:43:06.624Z,41.60
2023-01-26T04:45:38.999Z,42.08
2023-01-26T04:48:08.943Z,41.58
2023-01-26T04:50:39.015Z,35.72
2023-01-26T04:53:08.777Z,39.63
2023-01-26T04:55:38.558Z,41.15
2023-01-26T04:58:08.346Z,42.25
2023-01-26T05:00:40.848Z,44.60
2023-01-26T05:03:10.702Z,43.50
2023-01-26T05:05:40.826Z,48.33
2023-01-26T05:08:10.705Z,41.90
2023-01-26T05:10:40.528Z,44.60
2023-01-26T05:13:10.329Z,47.50
2023-01-26T05:15:43.317Z,48.78
2023-01-26T05:18:14.209Z,41.95
2023-01-26T05:20:44.112Z,45.88
2023-01-26T05:23:13.902Z,41.25
2023-01-26T05:25:43.672Z,38.78
2023-01-26T05:28:13.469Z,47.53
2023-01-26T05:30:45.969Z,44.10
2023-01-26T05:33:15.957Z,48.45
2023-01-26T05:35:45.785Z,42.10
2023-01-26T05:38:15.591Z,45.75
2023-01-26T05:40:45.467Z,44.45
2023-01-26T05:43:15.911Z,49.45
2023-01-26T05:45:48.311Z,48.08
2023-01-26T05:48:18.185Z,44.78
2023-01-26T05:50:48.135Z,48.60
2023-01-26T05:53:18.126Z,45.90
2023-01-26T05:55:48.766Z,42.13
2023-01-26T05:58:18.566Z,38.28
2023-01-26T06:00:51.199Z,42.03
2023-01-26T06:03:21.039Z,44.10
2023-01-26T06:05:56.428Z,43.10
2023-01-26T06:08:26.291Z,52.03
2023-01-26T06:11:01.785Z,46.85
2023-01-26T06:13:32.206Z,44.55
2023-01-26T06:16:06.373Z,42.22
2023-01-26T06:18:36.235Z,38.55
2023-01-26T06:21:06.124Z,45.45
2023-01-26T06:23:35.945Z,44.00
2023-01-26T06:26:06.357Z,43.97
2023-01-26T06:28:36.260Z,39.47
2023-01-26T06:31:11.497Z,42.13
2023-01-26T06:33:41.582Z,41.40
2023-01-26T06:36:14.418Z,44.55
2023-01-26T06:38:49.257Z,45.22
2023-01-26T06:41:19.802Z,48.97
2023-01-26T06:43:51.047Z,40.83
2023-01-26T06:46:24.192Z,49.33
2023-01-26T06:48:54.006Z,40.45
2023-01-26T06:51:45.504Z,36.25
2023-01-26T06:54:16.672Z,39.72
2023-01-26T06:56:46.941Z,30.77
2023-01-26T06:59:16.841Z,31.63
2023-01-26T07:01:51.339Z,36.92
2023-01-26T07:06:50.879Z,34.35
2023-01-26T07:09:20.686Z,32.45
2023-01-26T07:11:50.447Z,32.33
2023-01-26T07:14:20.211Z,35.53
2023-01-26T07:16:52.675Z,31.05
2023-01-26T07:19:22.696Z,34.90
2023-01-26T07:21:52.567Z,32.95
2023-01-26T07:24:22.453Z,32.78
2023-01-26T07:26:52.310Z,36.53
2023-01-26T07:29:22.354Z,34.45
2023-01-26T07:31:54.819Z,38.83
2023-01-26T07:34:24.698Z,38.33
2023-01-26T07:36:54.913Z,35.35
2023-01-26T07:39:24.706Z,37.35
2023-01-26T07:41:54.537Z,40.70
2023-01-26T07:44:24.329Z,32.20
2023-01-26T07:46:57.239Z,36.72
2023-01-26T07:49:27.076Z,34.03
2023-01-26T07:51:56.883Z,33.30
2023-01-26T07:54:26.678Z,37.83
2023-01-26T07:56:57.211Z,38.97
2023-01-26T07:59:27.381Z,34.42
2023-01-26T08:02:00.011Z,36.70
2023-01-26T08:04:29.856Z,35.95
2023-01-26T08:06:59.667Z,37.92
2023-01-26T08:09:29.599Z,35.53
2023-01-26T08:11:59.958Z,29.77
2023-01-26T08:14:45.169Z,35.92
2023-01-26T08:17:18.920Z,33.95
2023-01-26T08:19:49.082Z,33.25
2023-01-26T08:22:18.848Z,35.47
2023-01-26T08:24:48.635Z,34.63
2023-01-26T08:27:22.704Z,31.08
2023-01-26T08:29:52.553Z,29.23
2023-01-26T08:32:25.165Z,28.58
2023-01-26T08:34:57.262Z,28.95
2023-01-26T08:37:27.012Z,30.92
2023-01-26T08:39:56.872Z,33.03
2023-01-26T08:42:26.753Z,32.33
2023-01-26T08:44:56.541Z,35.67
2023-01-26T08:47:28.903Z,33.33
2023-01-26T08:49:59.042Z,33.88
2023-01-26T08:52:28.896Z,30.48
2023-01-26T08:54:58.937Z,29.67
2023-01-26T08:57:28.798Z,27.38
2023-01-26T08:59:58.629Z,26.30
2023-01-26T09:02:31.266Z,28.42
2023-01-26T09:05:01.142Z,29.73
2023-01-26T09:07:31.015Z,26.13
2023-01-26T09:10:00.817Z,29.23
2023-01-26T09:12:30.600Z,31.95
2023-01-26T09:15:00.395Z,25.48
2023-01-26T09:17:32.788Z,25.23
2023-01-26T09:20:02.567Z,25.17
2023-01-26T09:22:32.419Z,25.27
2023-01-26T09:25:02.246Z,31.77
2023-01-26T09:27:32.079Z,26.20
2023-01-26T09:30:01.896Z,27.88
2023-01-26T09:32:34.360Z,26.25
2023-01-26T09:35:04.272Z,23.58
2023-01-26T09:37:34.103Z,26.45
2023-01-26T09:40:03.917Z,26.05
2023-01-26T09:42:42.406Z,27.05
2023-01-26T09:45:33.681Z,26.73
2023-01-26T09:48:27.587Z,28.52
2023-01-26T09:51:00.904Z,23.05
2023-01-26T09:53:39.990Z,26.42
2023-01-26T09:56:16.155Z,23.23
2023-01-26T09:58:49.085Z,24.15
2023-01-26T10:01:25.768Z,23.73
2023-01-26T10:04:06.182Z,26.08
2023-01-26T10:06:36.820Z,25.20
2023-01-26T10:09:18.787Z,22.73
2023-01-26T10:11:51.363Z,25.13
2023-01-26T10:14:24.251Z,20.38
2023-01-26T10:16:56.391Z,22.48
2023-01-26T10:19:39.222Z,22.23
2023-01-26T10:22:16.345Z,22.63
2023-01-26T10:24:49.970Z,22.00
2023-01-26T10:27:19.875Z,18.75
2023-01-26T10:29:49.692Z,21.48
2023-01-26T10:32:21.141Z,18.88
2023-01-26T10:34:54.305Z,19.38
2023-01-26T10:37:26.207Z,23.25
2023-01-26T10:40:04.506Z,18.00
2023-01-26T10:42:35.954Z,19.77
2023-01-26T10:45:09.314Z,18.88
2023-01-26T10:47:39.132Z,20.73
2023-01-26T10:50:25.797Z,19.38
2023-01-26T10:53:04.003Z,19.80
2023-01-26T10:55:36.476Z,17.27
2023-01-26T10:58:06.703Z,18.25
2023-01-26T11:00:37.467Z,14.77
2023-01-26T11:03:20.908Z,17.52
2023-01-26T11:06:09.767Z,21.90
2023-01-26T11:08:41.984Z,22.88
2023-01-26T11:11:28.301Z,21.02
2023-01-26T11:14:13.862Z,18.42
2023-01-26T11:16:48.102Z,20.98
2023-01-26T11:19:28.302Z,19.25
2023-01-26T11:22:07.777Z,21.17
2023-01-26T11:24:45.275Z,18.17
2023-01-26T11:27:38.239Z,17.52
2023-01-26T11:30:40.659Z,22.23
2023-01-26T11:33:20.354Z,19.42
2023-01-26T11:35:56.257Z,20.27
2023-01-26T11:38:38.693Z,20.08
2023-01-26T11:41:31.317Z,22.45
2023-01-26T11:44:24.402Z,19.35
2023-01-26T11:47:09.931Z,21.25
2023-01-26T11:50:05.029Z,21.67
2023-01-26T11:52:44.437Z,25.83
2023-01-26T11:55:31.037Z,26.02
2023-01-26T11:58:17.409Z,22.95
2023-01-26T12:00:52.319Z,23.08
2023-01-26T12:03:28.661Z,26.65
2023-01-26T12:06:03.811Z,29.30
2023-01-26T12:08:40.993Z,30.60
2023-01-26T12:11:28.191Z,27.23
2023-01-26T12:14:08.316Z,31.95
2023-01-26T12:16:46.495Z,29.42
2023-01-26T12:19:27.238Z,27.50
2023-01-26T12:22:03.698Z,31.30
2023-01-26T12:25:08.136Z,32.15
2023-01-26T12:27:40.478Z,30.83
2023-01-26T12:30:27.277Z,32.22
2023-01-26T12:32:57.375Z,30.85
2023-01-26T12:35:40.308Z,28.38
2023-01-26T12:38:18.345Z,30.92
2023-01-26T12:41:01.286Z,31.23
2023-01-26T12:43:46.955Z,25.23
2023-01-26T12:46:18.367Z,25.13
2023-01-26T12:48:51.450Z,25.88
2023-01-26T12:51:26.570Z,27.48
2023-01-26T12:54:01.860Z,27.52
2023-01-26T12:56:35.784Z,28.25
2023-01-26T12:59:46.475Z,27.80
2023-01-26T13:02:21.426Z,28.98
2023-01-26T13:04:53.087Z,27.85
2023-01-26T13:07:41.474Z,25.55
2023-01-26T13:10:27.723Z,28.27
2023-01-26T13:13:00.414Z,30.17
2023-01-26T13:15:34.678Z,29.23
2023-01-26T13:18:06.426Z,28.50
2023-01-26T13:20:54.222Z,28.25
2023-01-26T13:23:40.255Z,30.40
2023-01-26T13:26:18.767Z,26.85
2023-01-26T13:28:51.022Z,27.80
2023-01-26T13:31:37.052Z,28.38
2023-01-26T13:34:11.905Z,28.45
2023-01-26T13:36:45.085Z,25.00
2023-01-26T13:39:20.966Z,25.70
2023-01-26T13:41:51.210Z,29.60
2023-01-26T13:44:26.343Z,23.15
2023-01-26T13:47:02.730Z,22.67
2023-01-26T13:49:41.696Z,27.60
2023-01-26T13:52:20.722Z,23.92
2023-01-26T13:54:52.036Z,26.15
2023-01-26T13:57:26.338Z,24.25
2023-01-26T13:59:59.124Z,25.98
2023-01-26T14:02:34.185Z,25.90
2023-01-26T14:05:05.170Z,20.98
2023-01-26T14:07:40.747Z,23.90
2023-01-26T14:10:18.391Z,24.65
2023-01-26T14:12:51.799Z,26.40
2023-01-26T14:15:27.376Z,22.20
2023-01-26T14:18:07.347Z,24.45
2023-01-26T14:20:39.445Z,29.27
2023-01-26T14:23:18.557Z,21.90
2023-01-26T14:25:50.934Z,20.77
2023-01-26T14:28:25.205Z,21.60
2023-01-26T14:30:59.684Z,22.88
2023-01-26T14:36:04.181Z,27.27
2023-01-26T14:38:44.245Z,24.92
2023-01-26T14:41:19.983Z,22.55
2023-01-26T14:43:53.933Z,22.42
2023-01-26T14:46:29.310Z,23.58
2023-01-26T14:49:07.435Z,24.27
2023-01-26T14:51:40.219Z,22.05
2023-01-26T14:54:20.249Z,23.38
2023-01-26T14:56:50.953Z,25.15
2023-01-26T14:59:25.126Z,19.10
2023-01-26T15:02:06.301Z,20.23
2023-01-26T15:04:43.046Z,23.73
2023-01-26T15:07:40.437Z,25.02
2023-01-26T15:10:32.781Z,26.52
2023-01-26T15:13:06.261Z,27.10
2023-01-26T15:15:38.448Z,28.10
2023-01-26T15:18:33.154Z,25.30
2023-01-26T15:21:17.189Z,23.98
2023-01-26T15:23:48.906Z,22.98
2023-01-26T15:26:29.119Z,26.23
2023-01-26T15:29:00.384Z,23.50
2023-01-26T15:31:33.852Z,24.73
2023-01-26T15:34:04.337Z,25.05
2023-01-26T15:36:49.077Z,26.40
2023-01-26T15:42:01.907Z,28.58
2023-01-26T15:44:31.784Z,27.50
2023-01-26T15:47:01.574Z,24.92
2023-01-26T15:49:31.389Z,28.00
2023-01-26T15:52:04.697Z,27.25
2023-01-26T15:54:34.482Z,38.33
2023-01-26T15:57:04.259Z,28.25
2023-01-26T15:59:34.056Z,26.20
2023-01-26T16:02:03.829Z,29.13
2023-01-26T16:04:33.601Z,25.88
2023-01-26T16:07:06.001Z,27.88
2023-01-26T16:09:35.749Z,31.77
2023-01-26T16:12:05.615Z,33.63
2023-01-26T16:14:35.395Z,27.48
2023-01-26T16:17:09.182Z,22.23
2023-01-26T16:19:38.953Z,30.45
2023-01-26T16:22:12.383Z,27.95
2023-01-26T16:24:43.993Z,27.45
2023-01-26T16:27:13.722Z,28.48
2023-01-26T16:29:43.772Z,24.45
2023-01-26T16:32:29.735Z,25.77
2023-01-26T16:34:59.560Z,23.85
2023-01-26T16:37:31.894Z,23.63
2023-01-26T16:40:01.721Z,23.65
2023-01-26T16:42:31.573Z,25.20
2023-01-26T16:45:01.300Z,26.25
2023-01-26T16:47:32.533Z,24.23
2023-01-26T16:50:02.808Z,28.27
2023-01-26T16:52:36.679Z,28.08
2023-01-26T16:55:12.628Z,25.70
2023-01-26T16:57:43.902Z,29.02
2023-01-26T17:00:18.760Z,27.05
2023-01-26T17:02:51.672Z,25.65
2023-01-26T17:05:23.949Z,26.45
2023-01-26T17:07:56.341Z,30.35
2023-01-26T17:10:26.150Z,27.05
2023-01-26T17:12:56.080Z,31.25
2023-01-26T17:15:28.273Z,28.90
2023-01-26T17:17:58.367Z,28.20
2023-01-26T17:20:28.227Z,26.85
2023-01-26T17:23:00.898Z,30.60
2023-01-26T17:25:30.677Z,32.92
2023-01-26T17:28:00.434Z,32.20
2023-01-26T17:30:30.244Z,29.30
2023-01-26T17:33:00.097Z,31.58
2023-01-26T17:35:29.952Z,32.47
2023-01-26T17:38:02.357Z,30.55
2023-01-26T17:40:32.173Z,32.60
2023-01-26T17:43:01.907Z,32.70
2023-01-26T17:45:32.355Z,34.17
2023-01-26T17:48:02.172Z,30.73
2023-01-26T17:50:31.910Z,33.53
2023-01-26T17:53:04.257Z,30.75
2023-01-26T17:55:34.007Z,31.98
2023-01-26T17:58:05.406Z,30.40
2023-01-26T18:00:35.149Z,28.60
2023-01-26T18:03:04.923Z,31.58
2023-01-26T18:05:35.064Z,30.85
2023-01-26T18:08:07.392Z,35.05
2023-01-26T18:10:37.139Z,33.28
2023-01-26T18:13:07.388Z,30.67
2023-01-26T18:15:39.051Z,34.58
2023-01-26T18:18:09.157Z,33.50
2023-01-26T18:20:38.894Z,30.88
2023-01-26T18:23:11.265Z,35.10
2023-01-26T18:25:41.138Z,32.38
2023-01-26T18:28:10.884Z,35.58
2023-01-26T18:30:40.699Z,33.63
2023-01-26T18:33:11.485Z,33.28
2023-01-26T18:35:41.272Z,30.73
2023-01-26T18:38:13.629Z,37.83
2023-01-26T18:40:43.463Z,33.45
2023-01-26T18:43:13.207Z,35.17
2023-01-26T18:45:44.561Z,42.50
2023-01-26T18:48:14.379Z,39.10
2023-01-26T18:50:44.118Z,34.75
2023-01-26T18:53:16.462Z,34.50
2023-01-26T18:55:46.274Z,37.50
2023-01-26T18:58:16.008Z,41.35
2023-01-26T19:00:45.787Z,36.95
2023-01-26T19:03:17.516Z,39.60
2023-01-26T19:05:47.304Z,37.63
2023-01-26T19:08:22.691Z,39.85
2023-01-26T19:10:52.701Z,41.85
2023-01-26T19:13:22.612Z,43.15
2023-01-26T19:15:53.734Z,38.65
2023-01-26T19:18:23.692Z,38.15
2023-01-26T19:21:00.741Z,39.85
2023-01-26T19:23:34.022Z,42.75
2023-01-26T19:26:03.829Z,41.30
2023-01-26T19:28:33.593Z,43.05
2023-01-26T19:31:06.571Z,43.40
2023-01-26T19:33:36.376Z,44.42
2023-01-26T19:36:07.491Z,45.97
2023-01-26T19:38:40.919Z,45.38
2023-01-26T19:41:10.787Z,43.65
2023-01-26T19:43:40.634Z,51.20
2023-01-26T19:46:11.884Z,42.05
2023-01-26T19:48:42.135Z,43.17
2023-01-26T19:51:15.172Z,47.88
2023-01-26T19:53:49.053Z,43.42
2023-01-26T19:56:20.513Z,42.72
2023-01-26T19:58:53.486Z,47.78
2023-01-26T20:01:24.944Z,43.55
2023-01-26T20:03:57.882Z,49.13
2023-01-26T20:06:31.034Z,45.35
2023-01-26T20:09:04.136Z,45.13
2023-01-26T20:11:34.209Z,54.65
2023-01-26T20:14:05.927Z,46.25
2023-01-26T20:16:36.978Z,47.88
2023-01-26T20:19:07.527Z,43.33
2023-01-26T20:21:38.810Z,47.72
2023-01-26T20:24:14.912Z,47.25
2023-01-26T20:26:45.117Z,45.70
2023-01-26T20:29:16.684Z,40.60
2023-01-26T20:31:47.096Z,41.05
2023-01-26T20:34:17.360Z,45.90
2023-01-26T20:36:47.124Z,44.90
2023-01-26T20:39:25.178Z,46.80
2023-01-26T20:41:55.557Z,51.05
2023-01-26T20:44:25.354Z,48.47
2023-01-26T20:46:55.184Z,40.00
2023-01-26T20:49:25.092Z,47.88
2023-01-26T20:51:54.869Z,52.25
2023-01-26T20:54:27.266Z,46.08
2023-01-26T20:56:57.597Z,42.17
2023-01-26T20:59:27.381Z,48.83
2023-01-26T21:01:57.190Z,45.22
2023-01-26T21:04:27.139Z,51.35
2023-01-26T21:06:56.919Z,52.28
2023-01-26T21:09:29.378Z,44.20
2023-01-26T21:11:59.204Z,46.20
2023-01-26T21:14:29.694Z,47.47
2023-01-26T21:16:59.601Z,47.80
2023-01-26T21:19:29.389Z,43.90
2023-01-26T21:21:59.574Z,43.45
2023-01-26T21:24:32.127Z,52.13
2023-01-26T21:27:02.780Z,41.80
2023-01-26T21:29:32.551Z,45.67
2023-01-26T21:32:02.356Z,43.90
2023-01-26T21:34:32.284Z,46.33
2023-01-26T21:37:02.133Z,42.38
2023-01-26T21:39:34.748Z,44.88
2023-01-26T21:42:04.562Z,44.42
2023-01-26T21:44:55.765Z,46.38
2023-01-26T21:47:25.681Z,46.15
2023-01-26T21:49:56.201Z,45.53
2023-01-26T21:52:38.450Z,47.00
2023-01-26T21:55:11.729Z,48.20
2023-01-26T21:57:54.057Z,47.38
2023-01-26T22:00:24.546Z,49.63
2023-01-26T22:02:54.622Z,42.15
2023-01-26T22:05:24.499Z,49.97
2023-01-26T22:07:54.297Z,45.67
2023-01-26T22:10:26.636Z,50.20
2023-01-26T22:12:56.384Z,43.80
2023-01-26T22:15:26.991Z,41.13
2023-01-26T22:17:56.805Z,47.25
2023-01-26T22:20:26.586Z,49.22
2023-01-26T22:22:56.411Z,42.97
2023-01-26T22:25:28.791Z,46.38
2023-01-26T22:27:58.581Z,42.47
2023-01-26T22:30:28.394Z,44.58
2023-01-26T22:32:58.191Z,45.17
2023-01-26T22:35:27.973Z,41.85
2023-01-26T22:37:57.770Z,40.47
2023-01-26T22:40:30.076Z,45.97
2023-01-26T22:42:59.837Z,46.63
2023-01-26T22:45:29.729Z,55.28
2023-01-26T22:47:59.670Z,42.33
2023-01-26T22:50:29.418Z,44.45
2023-01-26T22:52:59.206Z,39.47
2023-01-26T22:55:31.661Z,41.65
2023-01-26T22:58:01.535Z,41.90
2023-01-26T23:00:33.342Z,42.53
2023-01-26T23:03:03.179Z,38.83
2023-01-26T23:05:34.612Z,42.28
2023-01-26T23:08:04.754Z,40.42
2023-01-26T23:10:37.613Z,35.53
2023-01-26T23:13:08.220Z,34.95
2023-01-26T23:15:41.614Z,36.20
2023-01-26T23:18:11.440Z,33.78
2023-01-26T23:20:41.189Z,37.17
2023-01-26T23:23:10.962Z,35.58
2023-01-26T23:25:55.366Z,37.67
2023-01-26T23:28:26.902Z,39.10
2023-01-26T23:30:58.471Z,40.00
2023-01-26T23:33:29.898Z,36.60
2023-01-26T23:35:59.837Z,32.58
2023-01-26T23:38:31.581Z,33.78
2023-01-26T23:41:05.395Z,31.55
2023-01-26T23:43:35.394Z,35.55
2023-01-26T23:46:05.333Z,32.13
2023-01-26T23:48:35.143Z,32.20
2023-01-26T23:51:07.140Z,37.05
2023-01-26T23:53:37.275Z,33.50
2023-01-26T23:56:11.683Z,38.67
